createdAt,value
2022-10-21T00:01:40.436Z,95799.01
2022-10-21T00:04:06.625Z,95800.77
2022-10-21T00:06:32.973Z,95799.13
2022-10-21T00:08:59.374Z,95799.59
2022-10-21T00:11:25.661Z,95798.30
2022-10-21T00:13:52.000Z,95792.31
2022-10-21T00:16:18.347Z,95799.97
2022-10-21T00:18:44.696Z,95793.23
2022-10-21T00:21:11.033Z,95794.52
2022-10-21T00:23:37.374Z,95792.77
2022-10-21T00:26:03.723Z,95786.91
2022-10-21T00:28:30.067Z,95785.37
2022-10-21T00:30:58.094Z,95790.78
2022-10-21T00:33:22.762Z,95792.98
2022-10-21T00:35:49.104Z,95790.41
2022-10-21T00:38:15.457Z,95792.63
2022-10-21T00:40:41.811Z,95795.56
2022-10-21T00:43:08.187Z,95793.57
2022-10-21T00:45:34.575Z,95788.88
2022-10-21T00:48:00.910Z,95783.34
2022-10-21T00:50:27.288Z,95788.50
2022-10-21T00:52:53.637Z,95784.75
2022-10-21T00:55:19.988Z,95782.63
2022-10-21T00:57:46.337Z,95783.46
2022-10-21T01:00:12.675Z,95782.72
2022-10-21T01:02:39.012Z,95775.81
2022-10-21T01:05:05.348Z,95775.44
2022-10-21T01:07:31.692Z,95767.36
2022-10-21T01:09:58.033Z,95768.19
2022-10-21T01:12:24.376Z,95768.28
2022-10-21T01:14:50.777Z,95767.82
2022-10-21T01:17:26.573Z,95770.00
2022-10-21T01:19:43.722Z,95771.70
2022-10-21T01:22:10.071Z,95768.28
2022-10-21T01:24:36.408Z,95768.83
2022-10-21T01:27:02.756Z,95765.52
2022-10-21T01:29:30.301Z,95770.46
2022-10-21T01:31:55.436Z,95772.34
2022-10-21T01:34:21.781Z,95767.17
2022-10-21T01:36:48.159Z,95773.63
2022-10-21T01:39:14.491Z,95778.33
2022-10-21T01:41:40.873Z,95772.70
2022-10-21T01:44:07.179Z,95779.70
2022-10-21T01:46:33.532Z,95781.37
2022-10-21T01:48:59.878Z,95780.66
2022-10-21T01:53:52.571Z,95784.53
2022-10-21T01:56:18.917Z,95789.69
2022-10-21T01:58:45.258Z,95788.49
2022-10-21T02:01:11.658Z,95788.49
2022-10-21T02:03:38.009Z,95790.24
2022-10-21T02:06:04.353Z,95783.79
2022-10-21T02:08:30.789Z,95784.75
2022-10-21T02:10:57.071Z,95784.38
2022-10-21T02:13:23.412Z,95791.20
2022-10-21T02:15:49.757Z,95787.41
2022-10-21T02:18:16.100Z,95785.30
2022-10-21T02:20:42.439Z,95786.59
2022-10-21T02:23:08.787Z,95794.33
2022-10-21T02:25:35.125Z,95792.20
2022-10-21T02:28:01.467Z,95788.83
2022-10-21T02:30:27.819Z,95790.20
2022-10-21T02:32:54.161Z,95795.37
2022-10-21T02:35:20.507Z,95795.00
2022-10-21T02:37:46.880Z,95793.37
2022-10-21T02:40:13.243Z,95800.98
2022-10-21T02:42:39.803Z,95794.29
2022-10-21T02:45:05.932Z,95797.70
2022-10-21T02:47:32.275Z,95795.58
2022-10-21T02:49:58.615Z,95796.87
2022-10-21T02:52:24.964Z,95793.09
2022-10-21T02:54:51.299Z,95796.87
2022-10-21T02:57:17.641Z,95797.45
2022-10-21T02:59:43.991Z,95798.73
2022-10-21T03:02:10.328Z,95800.83
2022-10-21T03:04:36.678Z,95801.78
2022-10-21T03:07:03.014Z,95798.83
2022-10-21T03:09:29.366Z,95797.08
2022-10-21T03:11:55.708Z,95802.70
2022-10-21T03:14:22.050Z,95805.28
2022-10-21T03:16:48.390Z,95806.57
2022-10-21T03:19:14.734Z,95803.62
2022-10-21T03:21:41.078Z,95806.20
2022-10-21T03:24:11.090Z,95811.02
2022-10-21T03:26:33.807Z,95811.85
2022-10-21T03:29:00.142Z,95811.36
2022-10-21T03:31:26.525Z,95811.48
2022-10-21T03:33:52.897Z,95816.18
2022-10-21T03:36:19.198Z,95814.06
2022-10-21T03:38:45.547Z,95811.56
2022-10-21T03:41:11.884Z,95819.22
2022-10-21T03:43:38.270Z,95814.61
2022-10-21T03:46:04.616Z,95818.97
2022-10-21T03:48:31.003Z,95819.89
2022-10-21T03:50:57.468Z,95820.72
2022-10-21T03:53:42.131Z,95818.22
2022-10-21T03:55:53.048Z,95824.22
2022-10-21T03:58:16.497Z,95819.42
2022-10-21T04:00:42.854Z,95822.92
2022-10-21T04:03:09.185Z,95822.47
2022-10-21T04:05:35.522Z,95822.84
2022-10-21T04:08:01.879Z,95821.55
2022-10-21T04:10:28.220Z,95821.55
2022-10-21T04:12:54.586Z,95823.75
2022-10-21T04:15:20.929Z,95826.34
2022-10-21T04:17:47.268Z,95828.45
2022-10-21T04:20:13.609Z,95829.28
2022-10-21T04:22:40.144Z,95829.28
2022-10-21T04:25:06.295Z,95824.47
2022-10-21T04:27:32.639Z,95822.72
2022-10-21T04:29:58.976Z,95821.64
2022-10-21T04:32:25.315Z,95822.47
2022-10-21T04:34:51.685Z,95821.64
2022-10-21T04:37:18.031Z,95825.97
2022-10-21T04:39:44.377Z,95825.50
2022-10-21T04:42:10.726Z,95825.13
2022-10-21T04:44:37.063Z,95825.63
2022-10-21T04:47:03.402Z,95823.05
2022-10-21T04:49:29.742Z,95817.39
2022-10-21T04:51:56.123Z,95822.84
2022-10-21T04:54:22.427Z,95819.52
2022-10-21T04:56:48.773Z,95828.55
2022-10-21T04:59:15.112Z,95822.55
2022-10-21T05:01:42.408Z,95820.26
2022-10-21T05:04:07.807Z,95820.26
2022-10-21T05:06:34.154Z,95821.17
2022-10-21T05:09:00.562Z,95820.26
2022-10-21T05:11:26.837Z,95822.01
2022-10-21T05:13:53.178Z,95815.30
2022-10-21T05:16:19.527Z,95826.70
2022-10-21T05:18:45.926Z,95823.38
2022-10-21T05:21:12.274Z,95831.95
2022-10-21T05:23:38.617Z,95830.20
2022-10-21T05:26:04.967Z,95824.13
2022-10-21T05:28:31.325Z,95834.78
2022-10-21T05:30:57.662Z,95839.03
2022-10-21T05:33:23.996Z,95837.48
2022-10-21T05:35:50.353Z,95836.53
2022-10-21T05:38:16.712Z,95839.11
2022-10-21T05:40:43.167Z,95839.94
2022-10-21T05:43:09.503Z,95847.48
2022-10-21T05:45:35.850Z,95848.31
2022-10-21T05:48:02.188Z,95851.84
2022-10-21T05:50:28.541Z,95848.88
2022-10-21T05:52:55.743Z,95851.84
2022-10-21T05:55:21.237Z,95855.59
2022-10-21T05:57:47.718Z,95855.95
2022-10-21T06:00:13.989Z,95858.38
2022-10-21T06:02:40.616Z,95864.62
2022-10-21T06:05:06.684Z,95862.95
2022-10-21T06:07:33.055Z,95863.49
2022-10-21T06:09:59.411Z,95865.24
2022-10-21T06:12:25.833Z,95868.53
2022-10-21T06:14:52.190Z,95874.84
2022-10-21T06:17:18.532Z,95877.68
2022-10-21T06:19:47.364Z,95873.69
2022-10-21T06:22:11.233Z,95879.80
2022-10-21T06:24:37.579Z,95884.47
2022-10-21T06:27:03.925Z,95886.05
2022-10-21T06:29:30.271Z,95888.25
2022-10-21T06:31:56.614Z,95884.96
2022-10-21T06:34:22.959Z,95886.25
2022-10-21T06:36:49.310Z,95891.20
2022-10-21T06:39:15.653Z,95894.61
2022-10-21T06:41:42.003Z,95901.98
2022-10-21T06:44:08.353Z,95899.20
2022-10-21T06:46:34.755Z,95901.48
2022-10-21T06:49:01.097Z,95896.32
2022-10-21T06:51:27.447Z,95908.69
2022-10-21T06:53:53.792Z,95901.11
2022-10-21T06:56:20.138Z,95899.16
2022-10-21T06:58:46.494Z,95903.95
2022-10-21T07:01:27.230Z,95907.23
2022-10-21T07:03:39.186Z,95906.72
2022-10-21T07:06:05.528Z,95906.60
2022-10-21T07:08:46.469Z,95904.97
2022-10-21T07:10:58.299Z,95901.72
2022-10-21T07:13:26.111Z,95900.89
2022-10-21T07:15:51.064Z,95906.72
2022-10-21T07:18:17.353Z,95911.01
2022-10-21T07:20:43.685Z,95890.87
2022-10-21T07:23:10.066Z,95890.87
2022-10-21T07:25:36.426Z,95905.27
2022-10-21T07:28:02.803Z,95902.22
2022-10-21T07:30:29.151Z,95900.84
2022-10-21T07:32:55.507Z,95906.80
2022-10-21T07:35:21.852Z,95902.72
2022-10-21T07:37:48.212Z,95902.02
2022-10-21T07:40:14.562Z,95905.30
2022-10-21T07:42:40.909Z,95905.72
2022-10-21T07:45:07.263Z,95899.59
2022-10-21T07:47:33.619Z,95896.68
2022-10-21T07:49:59.960Z,95897.88
2022-10-21T07:52:26.299Z,95897.05
2022-10-21T07:54:52.648Z,95898.88
2022-10-21T07:57:19.060Z,95890.91
2022-10-21T07:59:45.412Z,95890.91
2022-10-21T08:02:11.760Z,95891.38
2022-10-21T08:04:38.106Z,95894.20
2022-10-21T08:07:04.466Z,95889.25
2022-10-21T08:09:30.837Z,95889.04
2022-10-21T08:11:57.186Z,95883.41
2022-10-21T08:17:08.806Z,95879.42
2022-10-21T08:19:35.151Z,95885.41
2022-10-21T08:22:01.507Z,95880.28
2022-10-21T08:24:27.907Z,95876.90
2022-10-21T08:26:54.269Z,95876.69
2022-10-21T08:29:20.614Z,95876.56
2022-10-21T08:31:47.015Z,95874.35
2022-10-21T08:34:13.363Z,95870.84
2022-10-21T08:36:39.769Z,95870.72
2022-10-21T08:39:06.129Z,95864.85
2022-10-21T08:41:32.483Z,95870.35
2022-10-21T08:43:58.824Z,95867.09
2022-10-21T08:46:25.197Z,95861.25
2022-10-21T08:48:51.569Z,95862.20
2022-10-21T08:51:17.921Z,95853.75
2022-10-21T08:53:44.267Z,95856.23
2022-10-21T08:56:12.619Z,95852.27
2022-10-21T08:58:36.990Z,95846.61
2022-10-21T09:01:03.328Z,95850.02
2022-10-21T09:03:29.677Z,95850.39
2022-10-21T09:05:56.041Z,95848.97
2022-10-21T09:08:22.388Z,95843.59
2022-10-21T09:10:48.724Z,95843.59
2022-10-21T09:13:15.070Z,95838.29
2022-10-21T09:15:41.411Z,95846.27
2022-10-21T09:18:07.781Z,95824.34
2022-10-21T09:20:34.120Z,95824.34
2022-10-21T09:23:00.498Z,95828.78
2022-10-21T09:25:26.845Z,95820.42
2022-10-21T09:27:57.218Z,95827.34
2022-10-21T09:30:19.529Z,95822.05
2022-10-21T09:32:45.932Z,95818.67
2022-10-21T09:35:12.267Z,95822.78
2022-10-21T09:37:38.850Z,95825.15
2022-10-21T09:40:05.016Z,95817.77
2022-10-21T09:42:48.188Z,95809.52
2022-10-21T09:44:57.715Z,95804.84
2022-10-21T09:47:24.063Z,95804.84
2022-10-21T09:50:07.654Z,95808.00
2022-10-21T09:52:16.775Z,95809.56
2022-10-21T09:54:43.163Z,95802.15
2022-10-21T09:57:09.503Z,95808.98
2022-10-21T09:59:35.859Z,95809.67
2022-10-21T10:02:02.209Z,95811.02
2022-10-21T10:04:28.548Z,95802.75
2022-10-21T10:06:54.903Z,95802.75
2022-10-21T10:09:21.251Z,95814.55
2022-10-21T10:11:47.589Z,95817.17
2022-10-21T10:14:14.017Z,95777.50
2022-10-21T10:16:40.322Z,95801.44
2022-10-21T10:19:06.678Z,95799.09
2022-10-21T10:21:33.195Z,95796.52
2022-10-21T10:23:59.530Z,95795.23
2022-10-21T10:26:25.870Z,95779.01
2022-10-21T10:28:52.234Z,95779.01
2022-10-21T10:31:18.562Z,95789.82
2022-10-21T10:33:45.009Z,95787.23
2022-10-21T10:36:11.293Z,95780.44
2022-10-21T10:38:37.674Z,95765.25
2022-10-21T10:41:04.023Z,95748.08
2022-10-21T10:43:30.377Z,95748.08
2022-10-21T10:45:56.759Z,95774.45
2022-10-21T10:48:23.140Z,95773.05
2022-10-21T10:50:49.481Z,95736.45
2022-10-21T10:53:15.905Z,95749.78
2022-10-21T10:55:42.288Z,95749.78
2022-10-21T10:58:14.477Z,95731.32
2022-10-21T11:00:34.949Z,95727.31
2022-10-21T11:03:01.316Z,95727.31
2022-10-21T11:05:27.655Z,95733.91
2022-10-21T11:07:54.000Z,95733.30
2022-10-21T11:10:20.338Z,95727.11
2022-10-21T11:12:46.692Z,95727.11
2022-10-21T11:15:13.034Z,95719.45
2022-10-21T11:17:39.711Z,95706.52
2022-10-21T11:22:48.041Z,95709.47
2022-10-21T11:25:14.386Z,95706.28
2022-10-21T11:27:41.185Z,95684.31
2022-10-21T11:30:07.112Z,95694.65
2022-10-21T11:32:33.452Z,95694.65
2022-10-21T11:34:59.780Z,95692.69
2022-10-21T11:37:26.134Z,95675.95
2022-10-21T11:39:52.478Z,95684.20
2022-10-21T11:42:18.828Z,95689.84
2022-10-21T11:44:45.180Z,95686.55
2022-10-21T11:47:11.535Z,95668.56
2022-10-21T11:49:37.874Z,95668.56
2022-10-21T11:52:04.239Z,95675.25
2022-10-21T11:54:30.581Z,95642.68
2022-10-21T11:56:56.920Z,95642.68
2022-10-21T12:01:49.668Z,95665.65
2022-10-21T12:04:15.966Z,95657.32
2022-10-21T12:06:42.301Z,95646.84
2022-10-21T12:09:08.679Z,95650.72
2022-10-21T12:11:35.020Z,95627.09
2022-10-21T12:14:01.380Z,95640.51
2022-10-21T12:16:27.725Z,95637.09
2022-10-21T12:18:54.073Z,95632.75
2022-10-21T12:21:20.409Z,95619.33
2022-10-21T12:23:46.765Z,95629.20
2022-10-21T12:26:13.108Z,95624.50
2022-10-21T12:28:39.445Z,95611.47
2022-10-21T12:31:05.802Z,95618.38
2022-10-21T12:33:32.167Z,95620.14
2022-10-21T12:35:58.519Z,95623.69
2022-10-21T12:38:24.861Z,95619.21
2022-10-21T12:40:51.259Z,95618.16
2022-10-21T12:43:17.594Z,95625.92
2022-10-21T12:45:43.942Z,95616.05
2022-10-21T12:48:10.320Z,95622.97
2022-10-21T12:50:36.680Z,95625.44
2022-10-21T12:53:03.039Z,95623.81
2022-10-21T12:55:29.385Z,95611.20
2022-10-21T12:57:55.758Z,95618.16
2022-10-21T13:00:22.123Z,95608.05
2022-10-21T13:02:51.720Z,95606.53
2022-10-21T13:05:14.814Z,95604.50
2022-10-21T13:07:41.157Z,95605.00
2022-10-21T13:10:07.496Z,95597.58
2022-10-21T13:12:33.843Z,95607.59
2022-10-21T13:15:00.188Z,95610.03
2022-10-21T13:17:26.569Z,95597.58
2022-10-21T13:19:52.983Z,95589.72
2022-10-21T13:22:19.322Z,95589.72
2022-10-21T13:24:45.674Z,95604.38
2022-10-21T13:27:12.118Z,95612.38
2022-10-21T13:29:38.464Z,95614.73
2022-10-21T13:32:04.843Z,95587.95
2022-10-21T13:34:31.157Z,95605.57
2022-10-21T13:36:57.507Z,95608.02
2022-10-21T13:39:23.858Z,95608.98
2022-10-21T13:41:51.173Z,95571.70
2022-10-21T13:44:16.568Z,95602.63
2022-10-21T13:46:43.845Z,95593.46
2022-10-21T13:49:09.280Z,95579.25
2022-10-21T13:51:35.627Z,95579.25
2022-10-21T13:54:01.977Z,95600.26
2022-10-21T13:56:28.341Z,95604.14
2022-10-21T13:58:54.680Z,95598.97
2022-10-21T14:01:21.061Z,95601.31
2022-10-21T14:06:14.905Z,95597.09
2022-10-21T14:08:40.108Z,95598.63
2022-10-21T14:11:06.395Z,95603.10
2022-10-21T14:13:32.741Z,95603.20
2022-10-21T14:15:59.419Z,95603.69
2022-10-21T14:18:28.286Z,95606.86
2022-10-21T14:20:52.095Z,95607.33
2022-10-21T14:23:18.442Z,95602.98
2022-10-21T14:25:44.789Z,95602.76
2022-10-21T14:28:11.154Z,95603.57
2022-10-21T14:30:37.508Z,95599.81
2022-10-21T14:33:03.858Z,95595.23
2022-10-21T14:35:30.190Z,95582.76
2022-10-21T14:37:57.494Z,95599.69
2022-10-21T14:40:22.884Z,95596.63
2022-10-21T14:42:52.381Z,95597.34
2022-10-21T14:45:15.571Z,95585.83
2022-10-21T14:47:41.924Z,95588.42
2022-10-21T14:50:08.257Z,95566.08
2022-10-21T14:52:34.602Z,95566.08
2022-10-21T14:55:00.963Z,95596.37
2022-10-21T14:57:27.341Z,95594.39
2022-10-21T14:59:53.681Z,95585.22
2022-10-21T15:02:20.024Z,95596.63
2022-10-21T15:04:46.360Z,95598.27
2022-10-21T15:07:12.785Z,95604.60
2022-10-21T15:09:39.038Z,95598.86
2022-10-21T15:12:05.392Z,95596.73
2022-10-21T15:14:31.726Z,95598.05
2022-10-21T15:16:58.065Z,95601.22
2022-10-21T15:19:24.409Z,95598.88
2022-10-21T15:21:50.763Z,95575.93
2022-10-21T15:24:17.093Z,95575.93
2022-10-21T15:26:43.483Z,95591.36
2022-10-21T15:29:09.817Z,95597.58
2022-10-21T15:31:36.173Z,95600.88
2022-10-21T15:34:02.520Z,95606.16
2022-10-21T15:36:28.859Z,95606.16
2022-10-21T15:38:55.190Z,95608.17
2022-10-21T15:41:21.530Z,95594.51
2022-10-21T15:46:14.240Z,95610.50
2022-10-21T15:48:40.574Z,95611.22
2022-10-21T15:51:06.922Z,95622.23
2022-10-21T15:53:33.285Z,95624.36
2022-10-21T15:55:59.607Z,95626.25
2022-10-21T15:58:25.939Z,95628.63
2022-10-21T16:00:53.416Z,95632.95
2022-10-21T16:03:18.685Z,95633.98
2022-10-21T16:05:45.027Z,95638.36
2022-10-21T16:08:11.365Z,95633.52
2022-10-21T16:10:37.705Z,95618.83
2022-10-21T16:13:04.041Z,95618.83
2022-10-21T16:15:30.407Z,95647.28
2022-10-21T16:17:56.742Z,95644.80
2022-10-21T16:20:23.108Z,95650.70
2022-10-21T16:22:49.442Z,95657.03
2022-10-21T16:25:15.788Z,95657.39
2022-10-21T16:27:54.831Z,95656.56
2022-10-21T16:30:08.469Z,95653.98
2022-10-21T16:32:34.808Z,95638.11
2022-10-21T16:35:01.153Z,95659.52
2022-10-21T16:37:27.487Z,95662.33
2022-10-21T16:39:53.890Z,95659.98
2022-10-21T16:42:20.172Z,95663.03
2022-10-21T16:44:46.510Z,95669.86
2022-10-21T16:47:12.933Z,95672.54
2022-10-21T16:49:39.258Z,95673.13
2022-10-21T16:52:05.585Z,95677.38
2022-10-21T16:54:31.931Z,95659.62
2022-10-21T16:56:59.032Z,95672.67
2022-10-21T16:59:24.622Z,95673.00
2022-10-21T17:01:50.956Z,95673.00
2022-10-21T17:04:17.296Z,95678.77
2022-10-21T17:06:43.643Z,95680.17
2022-10-21T17:09:10.041Z,95680.53
2022-10-21T17:11:36.324Z,95681.83
2022-10-21T17:14:02.668Z,95678.67
2022-10-21T17:16:28.996Z,95679.01
2022-10-21T17:18:55.350Z,95677.59
2022-10-21T17:21:21.684Z,95677.59
2022-10-21T17:23:48.032Z,95685.24
2022-10-21T17:26:14.366Z,95692.53
2022-10-21T17:28:40.706Z,95696.74
2022-10-21T17:31:07.057Z,95681.10
2022-10-21T17:33:33.401Z,95702.64
2022-10-21T17:35:59.768Z,95701.92
2022-10-21T17:38:26.108Z,95699.23
2022-10-21T17:40:52.469Z,95676.03
2022-10-21T17:43:18.807Z,95701.45
2022-10-21T17:45:45.152Z,95686.73
2022-10-21T17:48:11.496Z,95686.73
2022-10-21T17:50:37.879Z,95701.09
2022-10-21T17:53:04.174Z,95704.97
2022-10-21T17:55:30.507Z,95701.45
2022-10-21T17:57:56.850Z,95711.33
2022-10-21T18:00:23.180Z,95710.60
2022-10-21T18:02:49.551Z,95714.02
2022-10-21T18:05:17.323Z,95714.02
2022-10-21T18:07:42.363Z,95717.66
2022-10-21T18:10:08.572Z,95717.66
2022-10-21T18:12:34.926Z,95723.42
2022-10-21T18:15:01.254Z,95721.17
2022-10-21T18:17:27.599Z,95718.22
2022-10-21T18:19:53.963Z,95721.41
2022-10-21T18:22:20.305Z,95719.41
2022-10-21T18:24:46.637Z,95719.41
2022-10-21T18:27:12.991Z,95726.93
2022-10-21T18:29:39.322Z,95724.45
2022-10-21T18:32:05.661Z,95731.14
2022-10-21T18:34:32.033Z,95735.38
2022-10-21T18:36:58.377Z,95723.61
2022-10-21T18:39:25.898Z,95735.02
2022-10-21T18:41:51.045Z,95741.61
2022-10-21T18:44:17.386Z,95726.52
2022-10-21T18:46:43.731Z,95726.52
2022-10-21T18:49:10.072Z,95741.09
2022-10-21T18:51:36.411Z,95736.98
2022-10-21T18:54:02.739Z,95736.98
2022-10-21T18:56:29.079Z,95750.84
2022-10-21T18:58:55.449Z,95746.95
2022-10-21T19:01:21.837Z,95746.95
2022-10-21T19:03:48.114Z,95766.02
2022-10-21T19:06:14.526Z,95760.10
2022-10-21T19:08:40.916Z,95773.30
2022-10-21T19:11:07.211Z,95773.30
2022-10-21T19:13:33.560Z,95750.82
2022-10-21T19:15:59.894Z,95775.28
2022-10-21T19:18:26.249Z,95774.09
2022-10-21T19:20:52.586Z,95769.84
2022-10-21T19:23:18.931Z,95744.30
2022-10-21T19:25:45.276Z,95759.95
2022-10-21T19:28:11.621Z,95759.95
2022-10-21T19:30:37.958Z,95771.03
2022-10-21T19:33:04.301Z,95773.12
2022-10-21T19:35:30.637Z,95772.88
2022-10-21T19:38:00.584Z,95776.75
2022-10-21T19:40:23.317Z,95777.34
2022-10-21T19:42:50.901Z,95781.22
2022-10-21T19:45:15.991Z,95777.72
2022-10-21T19:47:42.332Z,95774.06
2022-10-21T19:50:08.694Z,95759.73
2022-10-21T19:52:35.029Z,95788.00
2022-10-21T19:55:01.351Z,95785.08
2022-10-21T19:57:27.686Z,95785.08
2022-10-21T19:59:54.030Z,95786.71
2022-10-21T20:02:20.365Z,95773.67
2022-10-21T20:04:46.777Z,95773.67
2022-10-21T20:07:13.110Z,95787.77
2022-10-21T20:09:39.454Z,95794.69
2022-10-21T20:12:05.787Z,95775.48
2022-10-21T20:14:32.135Z,95784.66
2022-10-21T20:16:58.474Z,95781.59
2022-10-21T20:19:24.820Z,95781.59
2022-10-21T20:21:51.231Z,95776.16
2022-10-21T20:24:17.530Z,95786.88
2022-10-21T20:26:43.869Z,95780.63
2022-10-21T20:29:10.194Z,95781.42
2022-10-21T20:31:36.537Z,95774.72
2022-10-21T20:34:02.906Z,95783.23
2022-10-21T20:36:29.236Z,95783.23
2022-10-21T20:38:55.580Z,95784.61
2022-10-21T20:41:21.946Z,95787.69
2022-10-21T20:43:48.282Z,95787.69
2022-10-21T20:46:14.621Z,95788.16
2022-10-21T20:48:40.959Z,95773.66
2022-10-21T20:51:07.292Z,95786.13
2022-10-21T20:53:33.635Z,95786.13
2022-10-21T20:55:59.965Z,95776.38
2022-10-21T20:58:26.307Z,95776.38
2022-10-21T21:00:52.635Z,95780.26
2022-10-21T21:03:18.982Z,95767.64
2022-10-21T21:05:45.313Z,95771.80
2022-10-21T21:08:12.851Z,95777.89
2022-10-21T21:10:38.079Z,95780.02
2022-10-21T21:13:04.332Z,95780.02
2022-10-21T21:15:30.699Z,95775.31
2022-10-21T21:17:57.040Z,95775.31
2022-10-21T21:20:23.384Z,95772.48
2022-10-21T21:22:49.758Z,95777.16
2022-10-21T21:25:16.099Z,95770.83
2022-10-21T21:27:42.436Z,95752.12
2022-10-21T21:30:08.808Z,95752.12
2022-10-21T21:32:35.146Z,95771.75
2022-10-21T21:35:05.048Z,95777.38
2022-10-21T21:37:27.840Z,95782.21
2022-10-21T21:39:54.175Z,95782.21
2022-10-21T21:42:20.529Z,95780.09
2022-10-21T21:44:46.871Z,95790.52
2022-10-21T21:47:13.205Z,95783.13
2022-10-21T21:49:39.550Z,95781.47
2022-10-21T21:52:05.901Z,95790.17
2022-10-21T21:54:32.245Z,95800.84
2022-10-21T21:57:23.176Z,95794.05
2022-10-21T21:59:24.928Z,95790.73
2022-10-21T22:01:51.323Z,95788.52
2022-10-21T22:04:17.637Z,95787.31
2022-10-21T22:06:43.992Z,95787.31
2022-10-21T22:09:10.404Z,95787.81
2022-10-21T22:11:36.670Z,95792.37
2022-10-21T22:14:03.015Z,95799.16
2022-10-21T22:16:29.353Z,95790.25
2022-10-21T22:18:55.687Z,95782.94
2022-10-21T22:21:23.052Z,95782.94
2022-10-21T22:23:48.364Z,95798.08
2022-10-21T22:26:14.708Z,95795.41
2022-10-21T22:28:41.088Z,95794.33
2022-10-21T22:31:07.421Z,95795.16
2022-10-21T22:33:33.800Z,95777.71
2022-10-21T22:36:00.114Z,95777.71
2022-10-21T22:38:26.451Z,95776.08
2022-10-21T22:40:52.788Z,95786.34
2022-10-21T22:43:19.137Z,95786.34
2022-10-21T22:45:48.043Z,95767.53
2022-10-21T22:48:11.810Z,95767.53
2022-10-21T22:50:38.155Z,95769.78
2022-10-21T22:53:04.492Z,95761.08
2022-10-21T22:55:30.831Z,95757.34
2022-10-21T22:57:57.173Z,95757.34
2022-10-21T23:00:23.509Z,95752.50
2022-10-21T23:02:49.839Z,95752.27
2022-10-21T23:05:16.182Z,95752.27
2022-10-21T23:07:42.523Z,95752.27
2022-10-21T23:10:10.078Z,95752.27
2022-10-21T23:12:36.258Z,95756.27
2022-10-21T23:15:02.608Z,95762.72
2022-10-21T23:17:28.945Z,95760.59
2022-10-21T23:19:55.272Z,95759.86
2022-10-21T23:22:21.636Z,95759.86
2022-10-21T23:24:47.989Z,95767.97
2022-10-21T23:27:14.337Z,95769.72
2022-10-21T23:29:40.670Z,95770.55
2022-10-21T23:32:07.025Z,95754.42
2022-10-21T23:34:33.396Z,95754.42
2022-10-21T23:36:59.719Z,95764.38
2022-10-21T23:39:26.053Z,95764.38
2022-10-21T23:41:52.404Z,95775.94
2022-10-21T23:44:18.770Z,95781.19
2022-10-21T23:46:45.113Z,95777.31
2022-10-21T23:49:11.446Z,95777.31
2022-10-21T23:51:37.792Z,95753.50
2022-10-21T23:54:04.125Z,95774.03
2022-10-21T23:56:30.507Z,95774.03
2022-10-21T23:58:56.858Z,95767.20
